Time;durP1;ratioP1;P1;durP2;ratioP2;P2;SDS_P1;SDS_P2;PMS_P1;PMS_P2;Temp;Humidity;BMP_temperature;BMP_pressure;BME280_temperature;BME280_humidity;BME280_pressure;Samples;Min_cycle;Max_cycle;Signal;HPM_P1;HPM_P2
2021/12/29 00:00:51;;;;;;;23.95;18.80;;;;;;;;;;5049004;28;20174;-60
2021/12/29 00:03:16;;;;;;;25.17;19.63;;;;;;;;;;5050850;28;20480;-60
2021/12/29 00:05:42;;;;;;;21.95;17.23;;;;;;;;;;5051448;28;20044;-60
2021/12/29 00:08:07;;;;;;;28.40;18.95;;;;;;;;;;5054789;28;20120;-61
2021/12/29 00:10:32;;;;;;;27.77;17.80;;;;;;;;;;5057517;28;20033;-60
2021/12/29 00:12:57;;;;;;;26.08;18.85;;;;;;;;;;5057877;28;20100;-61
2021/12/29 00:15:28;;;;;;;31.02;19.60;;;;;;;;;;5052993;28;20056;-61
2021/12/29 00:17:53;;;;;;;28.50;18.70;;;;;;;;;;5054675;28;20028;-61
2021/12/29 00:20:20;;;;;;;31.38;20.92;;;;;;;;;;5057831;28;20041;-62
2021/12/29 00:22:46;;;;;;;24.65;17.42;;;;;;;;;;5074137;28;20063;-62
2021/12/29 00:25:11;;;;;;;26.60;18.55;;;;;;;;;;5062812;28;20064;-62
2021/12/29 00:27:36;;;;;;;27.50;19.73;;;;;;;;;;5061928;28;20032;-63
2021/12/29 00:30:03;;;;;;;24.05;17.42;;;;;;;;;;5072983;28;20043;-63
2021/12/29 00:32:28;;;;;;;25.23;18.95;;;;;;;;;;5053815;28;20503;-62
2021/12/29 00:34:53;;;;;;;26.45;19.08;;;;;;;;;;5052517;28;20041;-63
2021/12/29 00:37:19;;;;;;;26.70;18.40;;;;;;;;;;5054187;28;20426;-62
2021/12/29 00:39:44;;;;;;;26.67;19.05;;;;;;;;;;5052547;28;20041;-62
2021/12/29 00:42:09;;;;;;;24.58;18.08;;;;;;;;;;5053789;28;20586;-62
2021/12/29 00:44:35;;;;;;;23.97;17.93;;;;;;;;;;5052140;28;20044;-62
2021/12/29 00:47:00;;;;;;;21.42;16.98;;;;;;;;;;5054037;28;20029;-62
2021/12/29 00:49:31;;;;;;;22.00;16.40;;;;;;;;;;5051481;28;20408;-62
2021/12/29 00:51:57;;;;;;;20.45;16.70;;;;;;;;;;5065732;28;20032;-62
2021/12/29 00:54:22;;;;;;;23.27;17.90;;;;;;;;;;5061927;28;20448;-62
2021/12/29 00:56:47;;;;;;;22.63;18.17;;;;;;;;;;5052976;28;20027;-62
2021/12/29 00:59:13;;;;;;;20.88;16.90;;;;;;;;;;5052238;28;20083;-62
2021/12/29 01:01:38;;;;;;;26.97;17.60;;;;;;;;;;5053465;28;20048;-63
2021/12/29 01:04:03;;;;;;;32.00;19.65;;;;;;;;;;5051613;28;20446;-62
2021/12/29 01:06:28;;;;;;;25.27;19.70;;;;;;;;;;5053413;28;20013;-62
2021/12/29 01:08:53;;;;;;;24.00;18.30;;;;;;;;;;5052343;28;20205;-62
2021/12/29 01:11:19;;;;;;;24.30;20.17;;;;;;;;;;5057428;28;20104;-63
2021/12/29 01:13:47;;;;;;;25.77;21.13;;;;;;;;;;5073379;28;20435;-63
2021/12/29 01:18:57;;;;;;;21.38;18.70;;;;;;;;;;5039356;28;20503;-62
2021/12/29 01:21:22;;;;;;;30.27;20.23;;;;;;;;;;5053724;28;20029;-62
2021/12/29 01:23:47;;;;;;;27.83;20.27;;;;;;;;;;5051828;28;20455;-62
2021/12/29 01:26:13;;;;;;;25.08;20.15;;;;;;;;;;5054822;28;21023;-62
2021/12/29 01:28:38;;;;;;;24.30;18.10;;;;;;;;;;5052413;28;20028;-61
2021/12/29 01:31:03;;;;;;;26.83;18.40;;;;;;;;;;5051473;28;20079;-62
2021/12/29 01:33:28;;;;;;;23.98;17.17;;;;;;;;;;5054433;28;20470;-62
2021/12/29 01:35:53;;;;;;;26.63;19.17;;;;;;;;;;5051589;28;20055;-63
2021/12/29 01:38:19;;;;;;;24.35;18.73;;;;;;;;;;5052978;28;21023;-63
2021/12/29 01:40:48;;;;;;;26.05;18.63;;;;;;;;;;5050997;28;20487;-63
2021/12/29 01:43:13;;;;;;;28.58;19.30;;;;;;;;;;5052929;28;20049;-63
2021/12/29 01:45:39;;;;;;;26.60;19.08;;;;;;;;;;5051074;28;20122;-63
2021/12/29 01:48:04;;;;;;;29.57;19.43;;;;;;;;;;5052330;28;20100;-63
2021/12/29 01:50:31;;;;;;;27.50;20.50;;;;;;;;;;5050937;28;20468;-63
2021/12/29 01:53:01;;;;;;;27.52;19.42;;;;;;;;;;5052949;28;20017;-63
2021/12/29 01:55:27;;;;;;;25.92;17.40;;;;;;;;;;5050738;28;20044;-64
2021/12/29 01:57:53;;;;;;;22.70;16.55;;;;;;;;;;5069591;28;20423;-64
2021/12/29 02:00:20;;;;;;;25.05;16.60;;;;;;;;;;5050816;28;20029;-64
2021/12/29 02:02:46;;;;;;;22.80;16.30;;;;;;;;;;5051981;28;20090;-64
2021/12/29 02:05:11;;;;;;;23.33;17.20;;;;;;;;;;5050683;28;20040;-63
2021/12/29 02:07:36;;;;;;;23.57;15.67;;;;;;;;;;5052436;28;20044;-63
2021/12/29 02:10:02;;;;;;;20.00;13.77;;;;;;;;;;5050931;28;20543;-63
2021/12/29 02:12:27;;;;;;;17.80;13.82;;;;;;;;;;5069306;28;20511;-63
2021/12/29 02:14:53;;;;;;;28.42;14.70;;;;;;;;;;5070672;28;20105;-63
2021/12/29 02:17:18;;;;;;;24.60;13.77;;;;;;;;;;5062261;28;20048;-64
2021/12/29 02:19:46;;;;;;;20.58;15.02;;;;;;;;;;5050585;28;20091;-64
2021/12/29 02:22:24;;;;;;;21.05;15.02;;;;;;;;;;5052228;28;20345;-64
2021/12/29 02:24:54;;;;;;;20.85;12.80;;;;;;;;;;5050344;28;20090;-64
2021/12/29 02:27:20;;;;;;;21.73;14.40;;;;;;;;;;5068532;28;20387;-64
2021/12/29 02:29:47;;;;;;;18.33;12.65;;;;;;;;;;5070361;28;20036;-64
2021/12/29 02:32:12;;;;;;;20.40;13.50;;;;;;;;;;5061410;28;20029;-64
2021/12/29 02:34:37;;;;;;;20.13;14.57;;;;;;;;;;5049962;28;20059;-63
2021/12/29 02:37:03;;;;;;;23.20;16.03;;;;;;;;;;5051806;28;20029;-63
2021/12/29 02:39:31;;;;;;;28.35;17.20;;;;;;;;;;5063781;28;20036;-63
2021/12/29 02:42:00;;;;;;;24.43;15.73;;;;;;;;;;5071954;28;20020;-63
2021/12/29 02:44:28;;;;;;;32.80;22.38;;;;;;;;;;5055914;28;20051;-63
2021/12/29 02:46:54;;;;;;;32.08;22.95;;;;;;;;;;5051454;28;20100;-63
2021/12/29 02:49:20;;;;;;;39.58;24.45;;;;;;;;;;5050522;28;20051;-62
2021/12/29 02:51:45;;;;;;;38.50;27.10;;;;;;;;;;5051353;28;20535;-61
2021/12/29 02:54:10;;;;;;;39.28;26.08;;;;;;;;;;5049446;28;20089;-61
2021/12/29 02:56:35;;;;;;;40.83;28.52;;;;;;;;;;5050976;28;20384;-61
2021/12/29 02:59:01;;;;;;;43.23;28.60;;;;;;;;;;5050382;28;20013;-61
2021/12/29 03:01:27;;;;;;;48.67;30.38;;;;;;;;;;5050809;28;21130;-61
2021/12/29 03:03:53;;;;;;;49.72;34.08;;;;;;;;;;5065262;28;20028;-61
2021/12/29 03:06:19;;;;;;;47.28;30.25;;;;;;;;;;5054023;28;20088;-61
2021/12/29 03:08:44;;;;;;;39.15;28.75;;;;;;;;;;5051033;28;20258;-60
2021/12/29 03:11:10;;;;;;;48.80;32.08;;;;;;;;;;5049868;28;20114;-61
2021/12/29 03:13:36;;;;;;;41.25;28.23;;;;;;;;;;5051347;28;20025;-60
2021/12/29 03:16:02;;;;;;;44.10;30.13;;;;;;;;;;5048946;28;20049;-59
2021/12/29 03:18:27;;;;;;;36.20;26.90;;;;;;;;;;5064499;28;20029;-59
2021/12/29 03:20:53;;;;;;;41.80;28.38;;;;;;;;;;5070032;28;20052;-59
2021/12/29 03:23:19;;;;;;;36.20;27.45;;;;;;;;;;5057632;28;20021;-60
2021/12/29 03:25:47;;;;;;;34.03;25.00;;;;;;;;;;5051929;28;20036;-59
2021/12/29 03:28:13;;;;;;;37.67;23.42;;;;;;;;;;5071328;28;20379;-59
2021/12/29 03:30:41;;;;;;;27.83;21.30;;;;;;;;;;5050202;28;20041;-59
2021/12/29 03:33:07;;;;;;;28.80;21.77;;;;;;;;;;5050189;28;20032;-59
2021/12/29 03:35:33;;;;;;;29.30;18.38;;;;;;;;;;5049429;28;20090;-59
2021/12/29 03:37:59;;;;;;;29.98;20.25;;;;;;;;;;5051177;28;20613;-60
2021/12/29 03:40:25;;;;;;;29.10;20.90;;;;;;;;;;5048382;28;20044;-59
2021/12/29 03:42:50;;;;;;;24.83;19.77;;;;;;;;;;5050649;28;20030;-60
2021/12/29 03:45:15;;;;;;;25.37;18.57;;;;;;;;;;5062557;28;20057;-60
2021/12/29 03:47:41;;;;;;;29.58;19.60;;;;;;;;;;5050173;28;20023;-60
2021/12/29 03:50:07;;;;;;;23.85;18.98;;;;;;;;;;5049633;28;20120;-60
2021/12/29 03:52:32;;;;;;;23.90;19.52;;;;;;;;;;5050740;28;20024;-60
2021/12/29 03:54:57;;;;;;;25.00;22.25;;;;;;;;;;5048767;28;20045;-59
2021/12/29 03:57:22;;;;;;;28.63;19.80;;;;;;;;;;5058492;28;20021;-60
2021/12/29 03:59:47;;;;;;;21.23;17.23;;;;;;;;;;5054463;28;20021;-60
2021/12/29 04:02:12;;;;;;;26.30;22.37;;;;;;;;;;5050134;28;20436;-60
2021/12/29 04:04:37;;;;;;;25.30;20.63;;;;;;;;;;5048955;28;20021;-59
2021/12/29 04:07:03;;;;;;;27.38;19.27;;;;;;;;;;5050637;28;20057;-59
2021/12/29 04:09:28;;;;;;;26.63;19.27;;;;;;;;;;5050017;28;20102;-61
2021/12/29 04:11:53;;;;;;;19.88;17.30;;;;;;;;;;5049071;28;20047;-60
2021/12/29 04:14:20;;;;;;;28.20;19.95;;;;;;;;;;5050451;28;20029;-60
2021/12/29 04:16:46;;;;;;;21.85;17.20;;;;;;;;;;5050342;28;20056;-60
2021/12/29 04:19:17;;;;;;;28.20;20.23;;;;;;;;;;5062837;28;20373;-63
2021/12/29 04:21:47;;;;;;;25.42;17.45;;;;;;;;;;5048726;28;20630;-63
2021/12/29 04:24:13;;;;;;;24.50;17.85;;;;;;;;;;5047112;28;20430;-62
2021/12/29 04:26:38;;;;;;;25.90;17.13;;;;;;;;;;5047061;28;20086;-61
2021/12/29 04:29:05;;;;;;;22.77;17.33;;;;;;;;;;5049318;28;20028;-61
2021/12/29 04:31:30;;;;;;;19.20;16.38;;;;;;;;;;5047476;28;20496;-61
2021/12/29 04:33:55;;;;;;;19.33;16.73;;;;;;;;;;5049848;28;20032;-61
2021/12/29 04:36:26;;;;;;;19.65;13.88;;;;;;;;;;5048247;28;20110;-61
2021/12/29 04:38:53;;;;;;;20.63;15.35;;;;;;;;;;5049516;28;20032;-61
2021/12/29 04:41:18;;;;;;;19.13;12.68;;;;;;;;;;5048608;28;20040;-61
2021/12/29 04:43:44;;;;;;;18.83;13.98;;;;;;;;;;5046280;28;20025;-61
2021/12/29 04:46:14;;;;;;;18.15;14.45;;;;;;;;;;5048164;28;20033;-62
2021/12/29 04:48:46;;;;;;;21.35;14.65;;;;;;;;;;5050253;28;20028;-61
2021/12/29 04:51:15;;;;;;;25.38;15.30;;;;;;;;;;5049059;28;20029;-61
2021/12/29 04:53:40;;;;;;;19.52;13.38;;;;;;;;;;5049976;28;20104;-61
2021/12/29 04:56:05;;;;;;;17.23;12.35;;;;;;;;;;5052109;28;20468;-61
2021/12/29 04:58:30;;;;;;;25.20;15.27;;;;;;;;;;5053146;28;20059;-62
2021/12/29 05:00:55;;;;;;;21.13;12.38;;;;;;;;;;5048605;28;20028;-62
2021/12/29 05:03:20;;;;;;;23.25;13.52;;;;;;;;;;5052895;28;20086;-62
2021/12/29 05:08:29;;;;;;;22.48;14.50;;;;;;;;;;5052456;28;20025;-62
2021/12/29 05:10:56;;;;;;;27.73;15.17;;;;;;;;;;5051629;28;20124;-63
2021/12/29 05:13:21;;;;;;;26.05;12.70;;;;;;;;;;5052591;28;20470;-62
2021/12/29 05:15:47;;;;;;;30.02;12.85;;;;;;;;;;5055226;28;20045;-62
2021/12/29 05:18:12;;;;;;;25.40;14.50;;;;;;;;;;5050008;28;20025;-62
2021/12/29 05:20:37;;;;;;;20.00;14.30;;;;;;;;;;5050917;28;20395;-61
2021/12/29 05:23:02;;;;;;;17.15;12.80;;;;;;;;;;5052552;28;20428;-61
2021/12/29 05:25:28;;;;;;;24.27;12.68;;;;;;;;;;5050956;28;20487;-61
2021/12/29 05:27:53;;;;;;;16.05;11.20;;;;;;;;;;5051014;28;20414;-61
2021/12/29 05:30:19;;;;;;;34.28;14.57;;;;;;;;;;5050776;28;20117;-61
2021/12/29 05:32:44;;;;;;;17.42;11.80;;;;;;;;;;5052398;28;20025;-61
2021/12/29 05:35:10;;;;;;;27.73;11.03;;;;;;;;;;5050861;28;20041;-61
2021/12/29 05:37:36;;;;;;;23.17;14.07;;;;;;;;;;5051862;28;21051;-61
2021/12/29 05:40:01;;;;;;;25.98;12.45;;;;;;;;;;5051079;28;20025;-61
2021/12/29 05:42:26;;;;;;;25.75;11.13;;;;;;;;;;5052122;28;20392;-61
2021/12/29 05:44:52;;;;;;;23.63;12.93;;;;;;;;;;5050769;28;20048;-61
2021/12/29 05:47:17;;;;;;;23.83;13.27;;;;;;;;;;5052279;28;20454;-61
2021/12/29 05:49:42;;;;;;;67.93;18.23;;;;;;;;;;5053091;28;20029;-61
2021/12/29 05:52:10;;;;;;;28.98;15.75;;;;;;;;;;5051830;28;20497;-61
2021/12/29 05:54:35;;;;;;;24.13;13.13;;;;;;;;;;5050875;28;20082;-61
2021/12/29 05:57:00;;;;;;;31.40;16.13;;;;;;;;;;5051197;28;20033;-61
2021/12/29 05:59:25;;;;;;;30.23;14.10;;;;;;;;;;5050194;28;20033;-61
2021/12/29 06:01:50;;;;;;;33.47;15.67;;;;;;;;;;5051624;28;20061;-61
2021/12/29 06:04:16;;;;;;;35.88;15.00;;;;;;;;;;5050628;28;20037;-60
2021/12/29 06:06:41;;;;;;;28.15;15.57;;;;;;;;;;5048912;28;20025;-61
2021/12/29 06:09:07;;;;;;;33.53;14.20;;;;;;;;;;5050364;28;20460;-61
2021/12/29 06:11:32;;;;;;;31.52;17.30;;;;;;;;;;5051832;28;20032;-60
2021/12/29 06:13:57;;;;;;;34.92;14.52;;;;;;;;;;5048492;28;20024;-60
2021/12/29 06:16:22;;;;;;;23.13;14.85;;;;;;;;;;5051706;28;20049;-61
2021/12/29 06:18:47;;;;;;;38.10;17.27;;;;;;;;;;5050182;28;20451;-59
2021/12/29 06:21:16;;;;;;;39.53;16.40;;;;;;;;;;5051293;28;20025;-60
2021/12/29 06:23:41;;;;;;;;;;;;;;;;;;5053349;28;20518;-60
2021/12/29 06:26:06;;;;;;;30.10;14.10;;;;;;;;;;5050107;28;20063;-60
2021/12/29 06:28:31;;;;;;;27.20;14.77;;;;;;;;;;5051868;28;20019;-61
2021/12/29 06:30:57;;;;;;;29.58;14.77;;;;;;;;;;5046320;28;20152;-61
2021/12/29 06:33:22;;;;;;;36.08;19.45;;;;;;;;;;5050646;28;20531;-61
2021/12/29 06:35:47;;;;;;;27.15;16.90;;;;;;;;;;5049511;28;20365;-61
2021/12/29 06:38:12;;;;;;;24.55;15.00;;;;;;;;;;5050736;28;20029;-61
2021/12/29 06:40:37;;;;;;;34.60;15.77;;;;;;;;;;5049733;28;20033;-60
2021/12/29 06:43:03;;;;;;;24.23;15.67;;;;;;;;;;5053946;28;20384;-58
2021/12/29 06:45:28;;;;;;;41.37;19.73;;;;;;;;;;5046017;28;20063;-58
2021/12/29 06:47:53;;;;;;;39.65;18.50;;;;;;;;;;5051682;28;20478;-58
2021/12/29 06:50:18;;;;;;;51.30;25.73;;;;;;;;;;5047832;28;20033;-58
2021/12/29 06:52:43;;;;;;;42.65;21.10;;;;;;;;;;5047811;28;20035;-58
2021/12/29 06:55:08;;;;;;;46.28;23.02;;;;;;;;;;5051424;28;20460;-58
2021/12/29 06:57:34;;;;;;;44.22;22.38;;;;;;;;;;5049603;28;20025;-58
2021/12/29 06:59:59;;;;;;;72.73;29.23;;;;;;;;;;5054842;28;20029;-58
2021/12/29 07:02:24;;;;;;;51.38;25.70;;;;;;;;;;5050412;28;20830;-58
2021/12/29 07:04:49;;;;;;;49.17;24.20;;;;;;;;;;5051306;28;20025;-58
2021/12/29 07:07:14;;;;;;;61.40;28.30;;;;;;;;;;5050622;28;20036;-58
2021/12/29 07:09:40;;;;;;;76.30;30.23;;;;;;;;;;5048313;28;20040;-58
2021/12/29 07:12:05;;;;;;;70.27;29.10;;;;;;;;;;5051319;28;20514;-58
2021/12/29 07:14:30;;;;;;;67.68;29.15;;;;;;;;;;5047516;28;20833;-58
2021/12/29 07:16:55;;;;;;;66.35;28.25;;;;;;;;;;5050074;28;20194;-58
2021/12/29 07:19:21;;;;;;;55.53;27.10;;;;;;;;;;5049126;28;20565;-58
2021/12/29 07:21:46;;;;;;;67.05;28.92;;;;;;;;;;5049678;28;20028;-58
2021/12/29 07:24:12;;;;;;;63.88;31.38;;;;;;;;;;5047458;28;20465;-58
2021/12/29 07:26:37;;;;;;;80.95;34.88;;;;;;;;;;5050304;28;20036;-59
2021/12/29 07:29:03;;;;;;;64.18;28.38;;;;;;;;;;5049913;28;20017;-59
2021/12/29 07:31:28;;;;;;;61.13;28.00;;;;;;;;;;5051460;28;20116;-59
2021/12/29 07:33:54;;;;;;;47.20;25.67;;;;;;;;;;5049513;28;20446;-58
2021/12/29 07:36:19;;;;;;;60.03;27.25;;;;;;;;;;5049460;28;20455;-58
2021/12/29 07:38:44;;;;;;;59.78;26.27;;;;;;;;;;5050267;28;20112;-58
2021/12/29 07:41:10;;;;;;;65.95;25.40;;;;;;;;;;5046805;28;20033;-58
2021/12/29 07:43:36;;;;;;;87.40;31.25;;;;;;;;;;5049524;28;20032;-58
2021/12/29 07:46:02;;;;;;;73.82;29.40;;;;;;;;;;5048683;28;20037;-58
2021/12/29 07:48:29;;;;;;;73.65;25.42;;;;;;;;;;5049916;28;20033;-58
2021/12/29 07:50:55;;;;;;;69.50;28.52;;;;;;;;;;5045688;28;20044;-58
2021/12/29 07:53:21;;;;;;;53.30;25.90;;;;;;;;;;5045697;28;20536;-58
2021/12/29 07:55:46;;;;;;;70.30;29.38;;;;;;;;;;5046786;28;20452;-58
2021/12/29 07:58:11;;;;;;;47.97;22.67;;;;;;;;;;5049644;28;20021;-58
2021/12/29 08:00:36;;;;;;;61.95;26.65;;;;;;;;;;5048674;28;20120;-58
2021/12/29 08:03:02;;;;;;;57.42;28.02;;;;;;;;;;5049587;28;20024;-58
2021/12/29 08:05:27;;;;;;;48.37;23.00;;;;;;;;;;5047422;28;20194;-58
2021/12/29 08:07:52;;;;;;;56.65;21.90;;;;;;;;;;5049325;28;20496;-58
2021/12/29 08:10:17;;;;;;;52.30;23.35;;;;;;;;;;5050415;28;20076;-58
2021/12/29 08:12:42;;;;;;;51.20;24.97;;;;;;;;;;5049722;28;20102;-58
2021/12/29 08:15:08;;;;;;;46.85;23.20;;;;;;;;;;5047420;28;20496;-58
2021/12/29 08:17:33;;;;;;;43.83;21.98;;;;;;;;;;5046547;28;20056;-58
2021/12/29 08:20:03;;;;;;;45.40;22.20;;;;;;;;;;5048342;28;20036;-58
2021/12/29 08:22:28;;;;;;;36.80;18.92;;;;;;;;;;5047601;28;20219;-58
2021/12/29 08:24:53;;;;;;;37.30;19.47;;;;;;;;;;5048824;28;20611;-58
2021/12/29 08:27:18;;;;;;;39.20;21.40;;;;;;;;;;5052279;28;20449;-58
2021/12/29 08:29:43;;;;;;;35.53;19.42;;;;;;;;;;5052179;28;20037;-58
2021/12/29 08:32:09;;;;;;;38.00;19.08;;;;;;;;;;5050998;28;20056;-58
2021/12/29 08:34:34;;;;;;;35.20;17.98;;;;;;;;;;5048873;28;20466;-58
2021/12/29 08:36:59;;;;;;;28.20;16.00;;;;;;;;;;5057423;28;20023;-58
2021/12/29 08:39:25;;;;;;;25.95;16.77;;;;;;;;;;5049552;28;20806;-59
2021/12/29 08:41:51;;;;;;;22.13;16.42;;;;;;;;;;5052203;28;20033;-58
2021/12/29 08:44:16;;;;;;;25.88;16.60;;;;;;;;;;5052085;28;20436;-58
2021/12/29 08:46:41;;;;;;;28.02;18.02;;;;;;;;;;5051873;28;20074;-58
2021/12/29 08:49:07;;;;;;;32.17;18.65;;;;;;;;;;5049010;28;20049;-58
2021/12/29 08:51:32;;;;;;;20.58;14.77;;;;;;;;;;5050363;28;20063;-58
2021/12/29 08:53:57;;;;;;;21.37;14.07;;;;;;;;;;5051728;28;20053;-59
2021/12/29 08:56:23;;;;;;;21.30;14.93;;;;;;;;;;5055417;28;20025;-58
2021/12/29 08:58:49;;;;;;;26.60;14.88;;;;;;;;;;5048491;28;20693;-57
2021/12/29 09:01:14;;;;;;;28.60;18.98;;;;;;;;;;5050308;28;20017;-58
2021/12/29 09:03:40;;;;;;;21.73;16.87;;;;;;;;;;5052225;28;20066;-58
2021/12/29 09:06:05;;;;;;;21.27;14.82;;;;;;;;;;5055651;28;20466;-58
2021/12/29 09:08:30;;;;;;;21.13;16.27;;;;;;;;;;5061840;28;20100;-58
2021/12/29 09:10:56;;;;;;;22.67;14.93;;;;;;;;;;5036206;28;20044;-58
2021/12/29 09:13:21;;;;;;;20.85;14.18;;;;;;;;;;5057024;28;20040;-58
2021/12/29 09:15:46;;;;;;;19.55;14.80;;;;;;;;;;5054183;28;20527;-58
2021/12/29 09:18:11;;;;;;;21.33;16.33;;;;;;;;;;5062935;28;20021;-58
2021/12/29 09:20:44;;;;;;;21.38;14.73;;;;;;;;;;5069836;28;20029;-58
2021/12/29 09:23:09;;;;;;;24.13;16.25;;;;;;;;;;5071039;28;20059;-58
2021/12/29 09:25:36;;;;;;;25.83;17.08;;;;;;;;;;5069207;28;20059;-58
2021/12/29 09:28:01;;;;;;;26.77;16.70;;;;;;;;;;5066634;28;20031;-58
2021/12/29 09:30:28;;;;;;;26.40;15.77;;;;;;;;;;5050479;28;20033;-58
2021/12/29 09:32:53;;;;;;;21.13;14.32;;;;;;;;;;5052957;28;20021;-58
2021/12/29 09:35:20;;;;;;;24.92;17.15;;;;;;;;;;5050785;28;20407;-58
2021/12/29 09:37:45;;;;;;;25.70;17.23;;;;;;;;;;5059371;28;20085;-58
2021/12/29 09:40:11;;;;;;;29.83;19.17;;;;;;;;;;5051042;28;20459;-58
2021/12/29 09:42:36;;;;;;;27.40;18.55;;;;;;;;;;5052204;28;20021;-58
2021/12/29 09:45:02;;;;;;;28.57;18.53;;;;;;;;;;5054091;28;20029;-58
2021/12/29 09:47:28;;;;;;;29.35;20.15;;;;;;;;;;5063698;28;20025;-59
2021/12/29 09:49:53;;;;;;;25.55;18.63;;;;;;;;;;5051452;28;20514;-58
2021/12/29 09:52:19;;;;;;;23.33;20.83;;;;;;;;;;5053440;28;20032;-59
2021/12/29 09:54:44;;;;;;;39.33;18.27;;;;;;;;;;5052029;28;20045;-58
2021/12/29 09:57:10;;;;;;;30.33;20.25;;;;;;;;;;5051235;28;20473;-58
2021/12/29 09:59:35;;;;;;;27.30;18.40;;;;;;;;;;5045660;28;20487;-58
2021/12/29 10:02:00;;;;;;;35.63;22.97;;;;;;;;;;5052375;28;20009;-58
2021/12/29 10:04:26;;;;;;;33.83;19.97;;;;;;;;;;5052604;28;20460;-58
2021/12/29 10:06:51;;;;;;;37.33;19.90;;;;;;;;;;5048110;28;20545;-58
2021/12/29 10:09:17;;;;;;;31.95;19.02;;;;;;;;;;5050349;28;20123;-58
2021/12/29 10:11:43;;;;;;;43.40;19.30;;;;;;;;;;5051241;28;20017;-58
2021/12/29 10:14:10;;;;;;;33.08;19.30;;;;;;;;;;5052348;28;20060;-58
2021/12/29 10:16:35;;;;;;;31.75;18.10;;;;;;;;;;5048549;28;20492;-58
2021/12/29 10:19:03;;;;;;;33.38;16.80;;;;;;;;;;5047119;28;20028;-59
2021/12/29 10:21:28;;;;;;;41.22;22.45;;;;;;;;;;5050969;28;20020;-58
2021/12/29 10:23:55;;;;;;;40.40;17.80;;;;;;;;;;5050204;28;20024;-57
2021/12/29 10:26:24;;;;;;;37.20;17.05;;;;;;;;;;5051435;28;20013;-59
2021/12/29 10:28:51;;;;;;;25.05;14.63;;;;;;;;;;5050375;28;20033;-58
2021/12/29 10:31:18;;;;;;;42.17;16.48;;;;;;;;;;5050999;28;20096;-57
2021/12/29 10:33:44;;;;;;;22.83;16.35;;;;;;;;;;5050219;28;20463;-58
2021/12/29 10:36:26;;;;;;;29.55;17.15;;;;;;;;;;5049068;28;20098;-58
2021/12/29 10:39:03;;;;;;;27.38;15.10;;;;;;;;;;5049825;28;20511;-57
2021/12/29 10:41:30;;;;;;;36.08;16.10;;;;;;;;;;5055906;28;20013;-58
2021/12/29 10:43:57;;;;;;;36.67;15.73;;;;;;;;;;5050164;28;20074;-59
2021/12/29 10:46:23;;;;;;;27.73;16.00;;;;;;;;;;5048588;28;20015;-59
2021/12/29 10:48:49;;;;;;;22.88;14.73;;;;;;;;;;5047837;28;20423;-57
2021/12/29 10:51:15;;;;;;;32.80;17.63;;;;;;;;;;5048915;28;20020;-58
2021/12/29 10:53:40;;;;;;;28.45;19.63;;;;;;;;;;5050839;28;20043;-59
2021/12/29 10:56:06;;;;;;;25.63;18.20;;;;;;;;;;5051317;28;20037;-58
2021/12/29 10:58:33;;;;;;;31.83;18.42;;;;;;;;;;5051688;28;20071;-57
2021/12/29 11:00:58;;;;;;;33.50;18.70;;;;;;;;;;5050390;28;20037;-58
2021/12/29 11:03:24;;;;;;;32.03;18.23;;;;;;;;;;5051154;28;20111;-57
2021/12/29 11:05:53;;;;;;;33.80;21.65;;;;;;;;;;5049855;28;20036;-57
2021/12/29 11:08:19;;;;;;;32.65;21.98;;;;;;;;;;5070560;28;20427;-57
2021/12/29 11:10:44;;;;;;;37.05;23.48;;;;;;;;;;5059831;28;20033;-57
2021/12/29 11:13:12;;;;;;;34.03;20.73;;;;;;;;;;5069553;28;20024;-57
2021/12/29 11:15:41;;;;;;;30.90;22.98;;;;;;;;;;5059688;28;20514;-58
2021/12/29 11:18:11;;;;;;;30.05;21.30;;;;;;;;;;5060693;28;20525;-57
2021/12/29 11:20:38;;;;;;;38.35;22.35;;;;;;;;;;5034812;28;20128;-57
2021/12/29 11:23:11;;;;;;;33.17;22.77;;;;;;;;;;5045109;28;20018;-57
2021/12/29 11:25:37;;;;;;;33.38;24.42;;;;;;;;;;5048680;28;20029;-57
2021/12/29 11:28:03;;;;;;;31.13;25.92;;;;;;;;;;5048911;28;20016;-57
2021/12/29 11:30:28;;;;;;;40.45;26.08;;;;;;;;;;5048843;28;20033;-57
2021/12/29 11:33:03;;;;;;;37.17;28.17;;;;;;;;;;5048521;28;20025;-57
2021/12/29 11:35:28;;;;;;;37.50;26.45;;;;;;;;;;5050795;28;20029;-57
2021/12/29 11:37:55;;;;;;;37.40;28.00;;;;;;;;;;5050785;28;20013;-57
2021/12/29 11:40:25;;;;;;;31.38;25.75;;;;;;;;;;5048649;28;20468;-58
2021/12/29 11:42:51;;;;;;;45.20;28.00;;;;;;;;;;5047397;28;20101;-57
2021/12/29 11:45:16;;;;;;;45.58;25.52;;;;;;;;;;5049471;28;20033;-57
2021/12/29 11:47:42;;;;;;;34.60;25.48;;;;;;;;;;5052709;28;20021;-57
2021/12/29 11:50:09;;;;;;;33.55;25.60;;;;;;;;;;5069465;28;20064;-57
2021/12/29 11:52:53;;;;;;;35.65;26.83;;;;;;;;;;5070766;28;20016;-57
2021/12/29 11:55:19;;;;;;;33.35;28.35;;;;;;;;;;5069077;28;20037;-57
2021/12/29 11:57:45;;;;;;;40.53;27.85;;;;;;;;;;5070789;28;20032;-57
2021/12/29 12:00:12;;;;;;;41.93;27.03;;;;;;;;;;5070117;28;20387;-57
2021/12/29 12:02:38;;;;;;;40.65;25.90;;;;;;;;;;5072898;28;20451;-57
2021/12/29 12:05:07;;;;;;;48.03;28.85;;;;;;;;;;5071298;28;20029;-57
2021/12/29 12:07:33;;;;;;;39.00;29.80;;;;;;;;;;5074780;28;20016;-57
2021/12/29 12:10:01;;;;;;;47.33;27.83;;;;;;;;;;5073172;28;20456;-57
2021/12/29 12:12:37;;;;;;;41.67;27.75;;;;;;;;;;5072991;28;20813;-57
2021/12/29 12:15:03;;;;;;;36.13;24.55;;;;;;;;;;5073476;28;20031;-57
2021/12/29 12:17:28;;;;;;;46.28;31.02;;;;;;;;;;5073277;28;20174;-58
2021/12/29 12:20:06;;;;;;;39.22;29.67;;;;;;;;;;5053360;28;20116;-57
2021/12/29 12:22:46;;;;;;;48.60;32.95;;;;;;;;;;5054508;28;20017;-57
2021/12/29 12:25:11;;;;;;;39.40;28.92;;;;;;;;;;5052874;28;20033;-58
2021/12/29 12:27:38;;;;;;;45.22;27.52;;;;;;;;;;5054204;28;20025;-57
2021/12/29 12:30:10;;;;;;;35.72;26.85;;;;;;;;;;5053013;28;20033;-57
2021/12/29 12:32:40;;;;;;;40.15;29.10;;;;;;;;;;5054975;28;20032;-58
2021/12/29 12:35:06;;;;;;;40.97;29.17;;;;;;;;;;5052751;28;20116;-57
2021/12/29 12:37:33;;;;;;;39.45;27.27;;;;;;;;;;5053882;28;20116;-58
2021/12/29 12:40:00;;;;;;;42.20;30.15;;;;;;;;;;5052745;28;20032;-58
2021/12/29 12:42:25;;;;;;;36.47;30.25;;;;;;;;;;5054967;28;20521;-57
2021/12/29 12:44:51;;;;;;;40.25;28.67;;;;;;;;;;5052716;28;20037;-58
2021/12/29 12:47:16;;;;;;;35.67;28.15;;;;;;;;;;5053714;28;20058;-57
2021/12/29 12:49:43;;;;;;;34.45;28.73;;;;;;;;;;5070111;28;20059;-57
2021/12/29 12:52:09;;;;;;;42.78;32.33;;;;;;;;;;5074132;28;20115;-57
2021/12/29 12:54:45;;;;;;;40.13;30.48;;;;;;;;;;5071970;28;20040;-58
2021/12/29 12:57:10;;;;;;;35.03;28.17;;;;;;;;;;5073843;28;20020;-57
2021/12/29 12:59:36;;;;;;;35.85;26.52;;;;;;;;;;5070671;28;20399;-57
2021/12/29 13:02:10;;;;;;;37.67;28.23;;;;;;;;;;5073538;28;20016;-57
2021/12/29 13:04:35;;;;;;;42.03;28.13;;;;;;;;;;5072320;28;20111;-57
2021/12/29 13:07:01;;;;;;;36.20;27.53;;;;;;;;;;5072381;28;20460;-57
2021/12/29 13:09:26;;;;;;;38.17;27.10;;;;;;;;;;5071584;28;20443;-58
2021/12/29 13:11:51;;;;;;;36.15;26.02;;;;;;;;;;5070371;28;20367;-57
2021/12/29 13:14:16;;;;;;;28.67;25.37;;;;;;;;;;5072336;28;20119;-57
2021/12/29 13:16:42;;;;;;;37.20;26.30;;;;;;;;;;5072778;28;20041;-57
2021/12/29 13:19:08;;;;;;;32.40;25.23;;;;;;;;;;5072172;28;20081;-57
2021/12/29 13:21:36;;;;;;;35.50;28.13;;;;;;;;;;5073256;28;20460;-57
2021/12/29 13:24:03;;;;;;;35.97;25.35;;;;;;;;;;5071960;28;20020;-57
2021/12/29 13:26:33;;;;;;;30.85;26.15;;;;;;;;;;5061383;28;20561;-57
2021/12/29 13:28:58;;;;;;;33.38;27.08;;;;;;;;;;5047953;28;20070;-57
2021/12/29 13:31:24;;;;;;;36.60;28.40;;;;;;;;;;5052660;28;20029;-57
2021/12/29 13:33:53;;;;;;;41.88;30.23;;;;;;;;;;5050873;28;20450;-56
2021/12/29 13:36:20;;;;;;;37.88;27.75;;;;;;;;;;5057354;28;20032;-57
2021/12/29 13:38:46;;;;;;;37.13;28.13;;;;;;;;;;5052043;28;20017;-57
2021/12/29 13:41:22;;;;;;;47.87;33.63;;;;;;;;;;5051233;28;20039;-57
2021/12/29 13:43:48;;;;;;;54.75;34.55;;;;;;;;;;5049162;28;20021;-57
2021/12/29 13:46:21;;;;;;;34.22;27.67;;;;;;;;;;5050262;28;20037;-57
2021/12/29 13:48:48;;;;;;;47.30;34.33;;;;;;;;;;5051835;28;20071;-57
2021/12/29 13:51:16;;;;;;;29.63;26.63;;;;;;;;;;5049621;28;20048;-57
2021/12/29 13:53:41;;;;;;;;;;;;;;;;;;5049948;28;20035;-57
2021/12/29 13:56:11;;;;;;;41.40;25.42;;;;;;;;;;5049495;28;19912;-57
2021/12/29 13:58:36;;;;;;;34.80;26.30;;;;;;;;;;5051372;28;20009;-57
2021/12/29 14:01:03;;;;;;;28.83;23.42;;;;;;;;;;5050061;28;20025;-57
2021/12/29 14:03:29;;;;;;;34.15;25.70;;;;;;;;;;5049074;28;20096;-57
2021/12/29 14:05:59;;;;;;;32.72;25.48;;;;;;;;;;5044767;28;20033;-57
2021/12/29 14:08:24;;;;;;;31.48;23.95;;;;;;;;;;5052583;28;20021;-57
2021/12/29 14:10:50;;;;;;;30.15;23.27;;;;;;;;;;5050127;28;20036;-58
2021/12/29 14:13:17;;;;;;;29.05;23.33;;;;;;;;;;5052625;28;20025;-57
2021/12/29 14:15:43;;;;;;;34.15;23.30;;;;;;;;;;5051165;28;20140;-58
2021/12/29 14:18:16;;;;;;;29.15;22.75;;;;;;;;;;5053876;28;20028;-57